createdAt,value
2023-04-14T00:00:14.257Z,99398.05
2023-04-14T00:01:18.028Z,99401.65
2023-04-14T00:02:20.213Z,99398.42
2023-04-14T00:03:23.160Z,99396.52
2023-04-14T00:04:25.996Z,99398.23
2023-04-14T00:05:32.448Z,99400.31
2023-04-14T00:06:34.989Z,99403.73
2023-04-14T00:07:37.523Z,99398.52
2023-04-14T00:08:39.686Z,99399.27
2023-04-14T00:09:42.248Z,99400.13
2023-04-14T00:10:44.524Z,99398.42
2023-04-14T00:11:46.684Z,99406.30
2023-04-14T00:12:48.869Z,99405.25
2023-04-14T00:13:50.920Z,99408.67
2023-04-14T00:14:53.424Z,99412.27
2023-04-14T00:15:55.578Z,99405.25
2023-04-14T00:16:57.955Z,99411.42
2023-04-14T00:18:00.110Z,99412.27
2023-04-14T00:19:02.982Z,99408.86
2023-04-14T00:20:06.561Z,99400.80
2023-04-14T00:21:08.791Z,99406.20
2023-04-14T00:22:10.982Z,99403.73
2023-04-14T00:23:13.160Z,99397.56
2023-04-14T00:24:15.141Z,99401.30
2023-04-14T00:25:17.653Z,99409.04
2023-04-14T00:26:19.908Z,99402.23
2023-04-14T00:27:22.462Z,99403.09
2023-04-14T00:28:24.526Z,99397.78
2023-04-14T00:29:26.992Z,99404.13
2023-04-14T00:30:29.359Z,99397.97
2023-04-14T00:31:31.574Z,99405.17
2023-04-14T00:32:35.634Z,99401.76
2023-04-14T00:33:37.978Z,99399.10
2023-04-14T00:34:40.146Z,99408.11
2023-04-14T00:35:44.319Z,99409.81
2023-04-14T00:36:46.630Z,99403.66
2023-04-14T00:37:48.675Z,99404.32
2023-04-14T00:38:50.836Z,99406.22
2023-04-14T00:39:53.156Z,99415.13
2023-04-14T00:40:55.981Z,99414.94
2023-04-14T00:42:03.287Z,99413.42
2023-04-14T00:43:05.289Z,99417.88
2023-04-14T00:44:07.341Z,99411.71
2023-04-14T00:45:10.400Z,99422.33
2023-04-14T00:46:14.963Z,99416.17
2023-04-14T00:47:17.505Z,99416.17
2023-04-14T00:48:20.954Z,99417.33
2023-04-14T00:49:24.326Z,99415.53
2023-04-14T00:50:26.608Z,99416.26
2023-04-14T00:51:28.792Z,99417.11
2023-04-14T00:52:31.738Z,99411.92
2023-04-14T00:53:33.900Z,99412.75
2023-04-14T00:54:37.242Z,99407.44
2023-04-14T00:55:40.560Z,99409.36
2023-04-14T00:56:43.848Z,99413.82
2023-04-14T00:57:46.761Z,99411.16
2023-04-14T00:58:51.559Z,99418.37
2023-04-14T00:59:53.896Z,99416.66
2023-04-14T01:00:57.760Z,99418.45
2023-04-14T01:02:01.065Z,99419.31
2023-04-14T01:03:03.614Z,99419.46
2023-04-14T01:04:06.673Z,99418.45
2023-04-14T01:05:10.559Z,99419.46
2023-04-14T01:06:13.588Z,99420.41
2023-04-14T01:07:16.483Z,99429.41
2023-04-14T01:08:20.295Z,99417.94
2023-04-14T01:09:22.939Z,99419.86
2023-04-14T01:10:28.743Z,99417.94
2023-04-14T01:11:43.431Z,99417.75
2023-04-14T01:13:15.278Z,99423.46
2023-04-14T01:14:44.965Z,99422.30
2023-04-14T01:17:28.367Z,99424.22
2023-04-14T01:18:53.423Z,99428.77
2023-04-14T01:20:16.360Z,99430.48
2023-04-14T01:21:22.118Z,99426.97
2023-04-14T01:22:27.977Z,99425.17
2023-04-14T01:23:36.798Z,99427.92
2023-04-14T01:24:42.884Z,99426.11
2023-04-14T01:25:58.308Z,99424.50
2023-04-14T01:27:13.873Z,99421.94
2023-04-14T01:28:43.770Z,99429.72
2023-04-14T01:30:15.840Z,99425.17
2023-04-14T01:31:26.600Z,99426.30
2023-04-14T01:32:32.631Z,99422.61
2023-04-14T01:33:38.570Z,99420.98
2023-04-14T01:34:44.698Z,99418.33
2023-04-14T01:35:53.089Z,99430.84
2023-04-14T01:38:14.877Z,99426.66
2023-04-14T01:39:20.421Z,99423.23
2023-04-14T01:40:25.446Z,99423.15
2023-04-14T01:41:29.903Z,99421.17
2023-04-14T01:42:35.273Z,99422.97
2023-04-14T01:43:41.265Z,99421.94
2023-04-14T01:44:45.839Z,99416.80
2023-04-14T01:45:52.532Z,99429.31
2023-04-14T01:48:08.414Z,99424.19
2023-04-14T01:49:11.713Z,99429.49
2023-04-14T01:50:17.831Z,99435.02
2023-04-14T01:51:21.961Z,99428.55
2023-04-14T01:52:26.865Z,99433.77
2023-04-14T01:53:32.658Z,99437.19
2023-04-14T01:54:38.154Z,99434.63
2023-04-14T01:55:42.564Z,99432.73
2023-04-14T01:56:46.412Z,99435.39
2023-04-14T01:57:52.293Z,99439.75
2023-04-14T01:58:56.659Z,99438.04
2023-04-14T02:00:00.587Z,99433.67
2023-04-14T02:01:05.649Z,99439.08
2023-04-14T02:02:11.549Z,99440.78
2023-04-14T02:03:17.211Z,99435.56
2023-04-14T02:04:22.910Z,99434.63
2023-04-14T02:05:26.858Z,99437.37
2023-04-14T02:06:30.987Z,99443.70
2023-04-14T02:07:34.492Z,99445.54
2023-04-14T02:08:39.815Z,99444.77
2023-04-14T02:09:44.842Z,99442.89
2023-04-14T02:10:49.905Z,99437.58
2023-04-14T02:11:54.252Z,99447.13
2023-04-14T02:12:58.380Z,99450.08
2023-04-14T02:14:01.387Z,99441.91
2023-04-14T02:15:05.253Z,99450.94
2023-04-14T02:16:09.906Z,99450.94
2023-04-14T02:17:13.270Z,99442.03
2023-04-14T02:18:19.179Z,99447.13
2023-04-14T02:19:23.516Z,99443.53
2023-04-14T02:20:28.338Z,99450.64
2023-04-14T02:21:34.451Z,99449.69
2023-04-14T02:22:37.272Z,99447.89
2023-04-14T02:23:39.503Z,99450.94
2023-04-14T02:24:41.770Z,99451.67
2023-04-14T02:27:17.763Z,99454.47
2023-04-14T02:28:23.138Z,99461.91
2023-04-14T02:29:28.263Z,99460.02
2023-04-14T02:30:34.291Z,99460.87
2023-04-14T02:32:58.376Z,99460.80
2023-04-14T02:34:03.494Z,99458.31
2023-04-14T02:36:27.940Z,99455.68
2023-04-14T02:37:34.412Z,99460.20
2023-04-14T02:38:40.225Z,99454.03
2023-04-14T02:39:46.091Z,99464.39
2023-04-14T02:40:49.989Z,99459.84
2023-04-14T02:41:56.023Z,99459.16
2023-04-14T02:44:22.624Z,99462.88
2023-04-14T02:45:28.316Z,99466.45
2023-04-14T02:46:34.263Z,99453.00
2023-04-14T02:47:39.715Z,99464.73
2023-04-14T02:48:44.891Z,99471.49
2023-04-14T02:49:49.641Z,99473.38
2023-04-14T02:50:56.744Z,99472.52
2023-04-14T02:52:05.327Z,99472.52
2023-04-14T02:53:09.663Z,99467.04
2023-04-14T02:54:14.094Z,99481.25
2023-04-14T02:55:22.846Z,99475.27
2023-04-14T02:56:27.780Z,99473.47
2023-04-14T02:57:32.753Z,99472.52
2023-04-14T02:58:36.380Z,99479.72
2023-04-14T02:59:41.049Z,99481.42
2023-04-14T03:00:45.879Z,99478.69
2023-04-14T03:01:50.045Z,99476.98
2023-04-14T03:02:53.823Z,99476.13
2023-04-14T03:03:57.172Z,99475.09
2023-04-14T03:05:00.415Z,99478.51
2023-04-14T03:06:08.902Z,99482.28
2023-04-14T03:07:14.024Z,99476.13
2023-04-14T03:08:17.304Z,99475.09
2023-04-14T03:09:22.131Z,99483.05
2023-04-14T03:10:25.365Z,99483.91
2023-04-14T03:11:28.878Z,99479.54
2023-04-14T03:12:33.449Z,99486.65
2023-04-14T03:13:39.539Z,99486.91
2023-04-14T03:14:44.032Z,99485.88
2023-04-14T03:15:46.875Z,99493.08
2023-04-14T03:16:54.419Z,99491.36
2023-04-14T03:17:59.573Z,99494.10
2023-04-14T03:19:03.942Z,99496.20
2023-04-14T03:20:07.952Z,99489.86
2023-04-14T03:21:10.702Z,99496.88
2023-04-14T03:22:13.634Z,99490.72
2023-04-14T03:23:18.887Z,99496.02
2023-04-14T03:24:23.318Z,99496.97
2023-04-14T03:25:28.555Z,99497.73
2023-04-14T03:26:34.184Z,99499.62
2023-04-14T03:27:37.886Z,99502.36
2023-04-14T03:28:41.601Z,99496.88
2023-04-14T03:29:50.826Z,99501.33
2023-04-14T03:30:54.280Z,99504.55
2023-04-14T03:32:00.556Z,99503.60
2023-04-14T03:33:06.502Z,99501.80
2023-04-14T03:34:10.718Z,99511.56
2023-04-14T03:35:16.240Z,99512.68
2023-04-14T03:36:20.920Z,99516.87
2023-04-14T03:37:26.628Z,99508.14
2023-04-14T03:38:32.627Z,99511.73
2023-04-14T03:40:48.795Z,99518.41
2023-04-14T03:41:55.339Z,99518.36
2023-04-14T03:42:59.370Z,99515.71
2023-04-14T03:44:03.880Z,99519.98
2023-04-14T03:45:07.214Z,99525.12
2023-04-14T03:46:11.380Z,99515.33
2023-04-14T03:47:15.069Z,99519.91
2023-04-14T03:48:20.064Z,99519.91
2023-04-14T03:49:27.340Z,99519.98
2023-04-14T03:50:33.448Z,99517.52
2023-04-14T03:51:39.575Z,99529.58
2023-04-14T03:52:44.701Z,99521.41
2023-04-14T03:53:48.615Z,99521.50
2023-04-14T03:54:54.543Z,99532.11
2023-04-14T03:55:58.418Z,99528.60
2023-04-14T03:57:03.400Z,99526.80
2023-04-14T03:58:08.255Z,99524.06
2023-04-14T03:59:14.186Z,99524.06
2023-04-14T04:00:20.272Z,99528.42
2023-04-14T04:01:24.984Z,99526.80
2023-04-14T04:02:29.558Z,99530.43
2023-04-14T04:03:34.634Z,99527.86
2023-04-14T04:04:37.686Z,99534.97
2023-04-14T04:05:42.339Z,99533.26
2023-04-14T04:06:45.566Z,99535.05
2023-04-14T04:07:49.732Z,99535.05
2023-04-14T04:08:53.356Z,99535.05
2023-04-14T04:09:57.271Z,99538.66
2023-04-14T04:11:02.912Z,99541.30
2023-04-14T04:12:07.111Z,99533.34
2023-04-14T04:13:12.350Z,99540.36
2023-04-14T04:14:18.703Z,99541.22
2023-04-14T04:15:23.007Z,99545.75
2023-04-14T04:16:27.734Z,99545.84
2023-04-14T04:17:32.566Z,99540.53
2023-04-14T04:18:37.676Z,99543.19
2023-04-14T04:19:43.155Z,99541.47
2023-04-14T04:20:46.375Z,99545.84
2023-04-14T04:21:51.597Z,99534.55
2023-04-14T04:22:57.960Z,99540.53
2023-04-14T04:24:01.870Z,99547.72
2023-04-14T04:25:05.949Z,99541.39
2023-04-14T04:26:10.072Z,99542.42
2023-04-14T04:27:26.433Z,99541.56
2023-04-14T04:28:18.903Z,99542.42
2023-04-14T04:29:22.902Z,99549.44
2023-04-14T04:30:28.121Z,99546.78
2023-04-14T04:31:31.808Z,99544.13
2023-04-14T04:32:36.179Z,99544.90
2023-04-14T04:33:39.254Z,99552.77
2023-04-14T04:34:42.798Z,99551.83
2023-04-14T04:35:46.240Z,99551.83
2023-04-14T04:36:49.770Z,99565.19
2023-04-14T04:37:53.547Z,99550.98
2023-04-14T04:38:56.634Z,99551.14
2023-04-14T04:39:58.865Z,99556.54
2023-04-14T04:41:01.977Z,99553.03
2023-04-14T04:42:06.046Z,99554.83
2023-04-14T04:43:08.845Z,99563.73
2023-04-14T04:44:11.083Z,99552.17
2023-04-14T04:45:16.893Z,99560.22
2023-04-14T04:46:41.228Z,99558.34
2023-04-14T04:47:43.783Z,99566.37
2023-04-14T04:48:50.552Z,99562.61
2023-04-14T04:49:52.779Z,99562.70
2023-04-14T04:50:55.147Z,99565.35
2023-04-14T04:51:57.444Z,99566.47
2023-04-14T04:52:59.708Z,99572.63
2023-04-14T04:54:01.880Z,99565.70
2023-04-14T04:55:04.958Z,99568.95
2023-04-14T04:56:08.720Z,99567.23
2023-04-14T04:57:12.254Z,99562.78
2023-04-14T04:58:15.640Z,99568.18
2023-04-14T04:59:18.069Z,99568.18
2023-04-14T05:00:20.917Z,99569.80
2023-04-14T05:01:22.914Z,99569.80
2023-04-14T05:02:25.175Z,99567.06
2023-04-14T05:03:27.770Z,99562.61
2023-04-14T05:04:29.932Z,99551.14
2023-04-14T05:05:35.587Z,99559.19
2023-04-14T05:06:38.666Z,99555.68
2023-04-14T05:07:41.137Z,99561.93
2023-04-14T05:08:43.288Z,99556.63
2023-04-14T05:09:45.886Z,99563.73
2023-04-14T05:10:48.449Z,99566.30
2023-04-14T05:11:50.596Z,99555.68
2023-04-14T05:12:53.060Z,99559.28
2023-04-14T05:13:55.426Z,99564.50
2023-04-14T05:14:58.099Z,99561.77
2023-04-14T05:16:05.014Z,99560.99
2023-04-14T05:17:07.580Z,99563.64
2023-04-14T05:18:10.437Z,99561.77
2023-04-14T05:19:12.502Z,99568.78
2023-04-14T05:20:16.186Z,99564.16
2023-04-14T05:21:18.757Z,99566.81
2023-04-14T05:22:20.808Z,99572.97
2023-04-14T05:23:23.579Z,99579.14
2023-04-14T05:24:25.727Z,99575.80
2023-04-14T05:25:28.406Z,99581.19
2023-04-14T05:26:54.405Z,99583.84
2023-04-14T05:27:35.283Z,99586.41
2023-04-14T05:28:37.579Z,99581.11
2023-04-14T05:29:40.658Z,99584.70
2023-04-14T05:30:42.654Z,99591.72
2023-04-14T05:31:44.656Z,99582.81
2023-04-14T05:32:47.247Z,99589.84
2023-04-14T05:33:49.474Z,99582.81
2023-04-14T05:34:51.432Z,99589.84
2023-04-14T05:35:54.367Z,99590.78
2023-04-14T05:36:56.574Z,99588.13
2023-04-14T05:37:59.095Z,99591.63
2023-04-14T05:39:01.172Z,99593.27
2023-04-14T05:40:03.970Z,99593.27
2023-04-14T05:41:07.000Z,99602.16
2023-04-14T05:42:09.226Z,99597.59
2023-04-14T05:43:11.407Z,99595.06
2023-04-14T05:44:13.879Z,99593.43
2023-04-14T05:45:16.028Z,99595.91
2023-04-14T05:46:18.683Z,99590.61
2023-04-14T05:47:21.313Z,99593.27
2023-04-14T05:48:23.645Z,99589.63
2023-04-14T05:49:25.857Z,99598.45
2023-04-14T05:50:28.762Z,99594.00
2023-04-14T05:51:30.829Z,99589.84
2023-04-14T05:52:33.014Z,99594.20
2023-04-14T05:53:35.522Z,99593.27
2023-04-14T05:54:38.714Z,99600.25
2023-04-14T05:55:41.214Z,99601.02
2023-04-14T05:56:43.670Z,99599.51
2023-04-14T05:57:46.433Z,99607.27
2023-04-14T05:58:49.389Z,99606.53
2023-04-14T05:59:52.486Z,99600.16
2023-04-14T06:00:55.093Z,99601.96
2023-04-14T06:01:57.863Z,99603.88
2023-04-14T06:03:00.574Z,99610.13
2023-04-14T06:04:03.554Z,99606.53
2023-04-14T06:05:07.715Z,99601.11
2023-04-14T06:06:10.981Z,99605.39
2023-04-14T06:07:13.580Z,99607.27
2023-04-14T06:08:15.654Z,99603.67
2023-04-14T06:09:17.839Z,99609.19
2023-04-14T06:10:20.178Z,99605.55
2023-04-14T06:11:22.230Z,99610.86
2023-04-14T06:12:24.260Z,99605.55
2023-04-14T06:13:27.165Z,99611.72
2023-04-14T06:14:30.939Z,99614.38
2023-04-14T06:16:42.426Z,99618.06
2023-04-14T06:17:44.707Z,99617.88
2023-04-14T06:18:47.144Z,99623.19
2023-04-14T06:19:49.217Z,99621.48
2023-04-14T06:20:51.505Z,99619.80
2023-04-14T06:21:53.564Z,99626.78
2023-04-14T06:22:56.181Z,99627.55
2023-04-14T06:23:58.213Z,99627.64
2023-04-14T06:25:00.258Z,99623.19
2023-04-14T06:26:02.994Z,99629.36
2023-04-14T06:27:05.421Z,99630.21
2023-04-14T06:28:07.493Z,99630.21
2023-04-14T06:29:10.042Z,99638.09
2023-04-14T06:30:13.299Z,99635.52
2023-04-14T06:31:16.030Z,99631.06
2023-04-14T06:32:19.307Z,99633.64
2023-04-14T06:33:21.848Z,99639.11
2023-04-14T06:34:23.908Z,99644.34
2023-04-14T06:35:32.824Z,99638.00
2023-04-14T06:36:30.301Z,99637.06
2023-04-14T06:37:32.868Z,99637.23
2023-04-14T06:38:34.934Z,99642.37
2023-04-14T06:39:37.570Z,99645.11
2023-04-14T06:40:39.730Z,99640.66
2023-04-14T06:41:41.763Z,99651.27
2023-04-14T06:42:46.277Z,99637.23
2023-04-14T06:43:48.317Z,99645.11
2023-04-14T06:44:50.361Z,99642.45
2023-04-14T06:45:53.016Z,99644.94
2023-04-14T06:46:57.245Z,99644.09
2023-04-14T06:47:59.641Z,99650.16
2023-04-14T06:49:02.381Z,99647.68
2023-04-14T06:50:06.083Z,99648.37
2023-04-14T06:51:08.302Z,99646.66
2023-04-14T06:52:10.473Z,99650.08
2023-04-14T06:53:12.541Z,99652.66
2023-04-14T06:54:15.680Z,99647.26
2023-04-14T06:55:18.047Z,99651.59
2023-04-14T06:56:20.565Z,99654.94
2023-04-14T06:57:22.862Z,99652.28
2023-04-14T06:58:26.133Z,99649.63
2023-04-14T06:59:28.552Z,99644.06
2023-04-14T07:00:31.173Z,99658.97
2023-04-14T07:01:33.889Z,99651.77
2023-04-14T07:02:36.937Z,99654.31
2023-04-14T07:03:39.273Z,99649.00
2023-04-14T07:04:42.027Z,99652.42
2023-04-14T07:05:44.576Z,99655.00
2023-04-14T07:06:47.698Z,99653.11
2023-04-14T07:07:50.783Z,99660.00
2023-04-14T07:08:53.503Z,99651.94
2023-04-14T07:09:55.744Z,99654.69
2023-04-14T07:11:03.338Z,99656.40
2023-04-14T07:12:05.623Z,99655.25
2023-04-14T07:13:07.718Z,99661.16
2023-04-14T07:14:09.646Z,99660.13
2023-04-14T07:15:11.657Z,99656.36
2023-04-14T07:16:14.101Z,99665.92
2023-04-14T07:17:16.368Z,99658.93
2023-04-14T07:18:19.286Z,99665.92
2023-04-14T07:19:21.512Z,99660.61
2023-04-14T07:20:24.765Z,99667.63
2023-04-14T07:21:27.510Z,99657.78
2023-04-14T07:22:29.680Z,99663.18
2023-04-14T07:23:31.875Z,99665.09
2023-04-14T07:24:34.032Z,99666.04
2023-04-14T07:25:36.861Z,99668.49
2023-04-14T07:26:39.695Z,99671.06
2023-04-14T07:27:52.766Z,99673.72
2023-04-14T07:28:45.856Z,99671.74
2023-04-14T07:31:15.899Z,99673.58
2023-04-14T07:32:18.765Z,99674.31
2023-04-14T07:33:21.310Z,99676.88
2023-04-14T07:34:23.506Z,99672.42
2023-04-14T07:35:25.673Z,99673.93
2023-04-14T07:36:29.641Z,99680.02
2023-04-14T07:37:31.883Z,99673.76
2023-04-14T07:38:34.383Z,99671.87
2023-04-14T07:39:37.150Z,99668.27
2023-04-14T07:40:40.189Z,99667.14
2023-04-14T07:41:42.845Z,99671.52
2023-04-14T07:42:47.001Z,99675.89
2023-04-14T07:43:49.124Z,99674.94
2023-04-14T07:44:51.685Z,99674.73
2023-04-14T07:45:53.672Z,99672.84
2023-04-14T07:46:56.124Z,99665.64
2023-04-14T07:47:58.364Z,99671.72
2023-04-14T07:49:00.574Z,99677.98
2023-04-14T07:50:03.723Z,99672.58
2023-04-14T07:51:07.099Z,99671.72
2023-04-14T07:52:09.751Z,99672.66
2023-04-14T07:53:12.804Z,99669.23
2023-04-14T07:54:15.424Z,99670.01
2023-04-14T07:55:18.516Z,99665.55
2023-04-14T07:56:21.163Z,99667.17
2023-04-14T07:57:23.435Z,99668.03
2023-04-14T07:58:27.144Z,99664.52
2023-04-14T07:59:29.574Z,99665.46
2023-04-14T08:00:32.888Z,99664.52
2023-04-14T08:01:35.021Z,99670.69
2023-04-14T08:02:37.322Z,99667.08
2023-04-14T08:03:41.987Z,99668.49
2023-04-14T08:04:44.088Z,99665.66
2023-04-14T08:05:46.372Z,99656.73
2023-04-14T08:06:49.007Z,99664.63
2023-04-14T08:07:51.214Z,99660.16
2023-04-14T08:08:53.787Z,99668.91
2023-04-14T08:09:56.058Z,99668.81
2023-04-14T08:10:58.731Z,99668.72
2023-04-14T08:12:00.908Z,99672.41
2023-04-14T08:13:03.778Z,99681.25
2023-04-14T08:14:06.269Z,99677.64
2023-04-14T08:15:08.962Z,99673.18
2023-04-14T08:16:12.406Z,99679.53
2023-04-14T08:17:15.886Z,99676.02
2023-04-14T08:18:18.138Z,99681.34
2023-04-14T08:19:20.762Z,99681.42
2023-04-14T08:20:23.066Z,99684.09
2023-04-14T08:21:25.753Z,99685.03
2023-04-14T08:22:28.819Z,99686.74
2023-04-14T08:23:32.206Z,99683.32
2023-04-14T08:24:36.009Z,99688.55
2023-04-14T08:25:38.568Z,99687.69
2023-04-14T08:26:40.810Z,99687.69
2023-04-14T08:27:42.909Z,99689.58
2023-04-14T08:41:02.788Z,99701.75
2023-04-14T08:42:16.819Z,99710.67
2023-04-14T08:43:22.707Z,99701.75
2023-04-14T08:44:26.119Z,99709.81
2023-04-14T08:45:30.299Z,99703.64
2023-04-14T08:46:33.407Z,99701.75
2023-04-14T08:47:39.069Z,99705.27
2023-04-14T08:48:43.478Z,99706.89
2023-04-14T08:49:52.231Z,99702.30
2023-04-14T08:51:15.294Z,99710.28
2023-04-14T08:52:20.893Z,99713.62
2023-04-14T08:53:24.723Z,99708.21
2023-04-14T08:54:28.620Z,99708.21
2023-04-14T08:55:33.434Z,99704.61
2023-04-14T08:56:42.773Z,99710.78
2023-04-14T08:57:47.735Z,99704.61
2023-04-14T08:58:50.067Z,99711.45
2023-04-14T08:59:56.079Z,99706.99
2023-04-14T09:00:59.937Z,99714.88
2023-04-14T09:02:03.919Z,99708.62
2023-04-14T09:03:07.728Z,99711.28
2023-04-14T09:04:10.707Z,99706.81
2023-04-14T09:05:14.143Z,99710.20
2023-04-14T09:06:18.356Z,99710.30
2023-04-14T09:07:23.173Z,99711.16
2023-04-14T09:08:26.485Z,99713.72
2023-04-14T09:09:30.318Z,99707.64
2023-04-14T09:10:33.982Z,99706.81
2023-04-14T09:11:37.540Z,99705.74
2023-04-14T09:12:42.012Z,99706.60
2023-04-14T09:13:44.571Z,99712.69
2023-04-14T09:14:49.508Z,99708.41
2023-04-14T09:15:52.174Z,99711.06
2023-04-14T09:16:54.799Z,99714.48
2023-04-14T09:17:57.433Z,99716.97
2023-04-14T09:19:07.067Z,99712.59
2023-04-14T09:20:38.749Z,99705.38
2023-04-14T09:21:49.344Z,99706.23
2023-04-14T09:22:17.310Z,99712.41
2023-04-14T09:23:21.720Z,99707.09
2023-04-14T09:24:27.083Z,99703.48
2023-04-14T09:25:30.071Z,99709.58
2023-04-14T09:26:32.403Z,99701.59
2023-04-14T09:27:35.255Z,99699.67
2023-04-14T09:28:37.666Z,99704.89
2023-04-14T09:29:41.831Z,99702.14
2023-04-14T09:30:44.215Z,99695.87
2023-04-14T09:31:47.391Z,99700.25
2023-04-14T09:32:51.824Z,99699.12
2023-04-14T09:33:55.001Z,99705.11
2023-04-14T09:34:58.420Z,99698.72
2023-04-14T09:36:01.082Z,99706.52
2023-04-14T09:37:07.959Z,99702.05
2023-04-14T09:38:10.668Z,99712.69
2023-04-14T09:39:16.663Z,99702.91
2023-04-14T09:40:30.826Z,99706.61
2023-04-14T09:41:33.896Z,99713.73
2023-04-14T09:42:40.456Z,99714.68
2023-04-14T09:43:43.635Z,99711.29
2023-04-14T09:44:53.759Z,99718.50
2023-04-14T09:45:58.244Z,99717.73
2023-04-14T09:47:05.447Z,99715.94
2023-04-14T09:48:09.460Z,99715.84
2023-04-14T09:49:12.386Z,99712.23
2023-04-14T09:50:14.713Z,99716.79
2023-04-14T09:51:18.659Z,99709.58
2023-04-14T09:52:21.396Z,99715.75
2023-04-14T09:53:31.954Z,99712.23
2023-04-14T09:54:35.179Z,99712.14
2023-04-14T09:55:40.955Z,99711.16
2023-04-14T09:56:45.568Z,99720.00
2023-04-14T09:57:47.899Z,99719.14
2023-04-14T09:58:51.300Z,99712.88
2023-04-14T09:59:53.428Z,99719.05
2023-04-14T10:00:56.383Z,99718.11
2023-04-14T10:02:00.379Z,99726.85
2023-04-14T10:03:03.389Z,99717.16
2023-04-14T10:04:09.322Z,99729.52
2023-04-14T10:05:11.902Z,99725.14
2023-04-14T10:06:16.785Z,99727.70
2023-04-14T10:07:18.888Z,99725.05
2023-04-14T10:08:21.076Z,99727.52
2023-04-14T10:09:24.553Z,99728.38
2023-04-14T10:10:28.557Z,99730.86
2023-04-14T10:11:32.869Z,99737.67
2023-04-14T10:12:35.377Z,99743.58
2023-04-14T10:13:38.733Z,99732.74
2023-04-14T10:14:42.962Z,99740.45
2023-04-14T10:15:45.322Z,99739.38
2023-04-14T10:16:47.629Z,99745.38
2023-04-14T10:17:50.188Z,99736.28
2023-04-14T10:18:53.934Z,99742.46
2023-04-14T10:19:56.799Z,99748.55
2023-04-14T10:21:00.921Z,99744.94
2023-04-14T10:22:05.217Z,99749.28
2023-04-14T10:23:07.942Z,99746.93
2023-04-14T10:24:11.469Z,99747.78
2023-04-14T10:25:14.318Z,99762.91
2023-04-14T10:26:18.878Z,99751.40
2023-04-14T10:27:21.910Z,99760.48
2023-04-14T10:28:26.268Z,99753.45
2023-04-14T10:29:30.674Z,99756.02
2023-04-14T10:30:33.512Z,99763.09
2023-04-14T10:31:41.763Z,99756.87
2023-04-14T10:32:45.301Z,99759.53
2023-04-14T10:33:47.582Z,99764.09
2023-04-14T10:35:07.963Z,99762.38
2023-04-14T10:36:11.732Z,99761.62
2023-04-14T10:37:15.415Z,99757.25
2023-04-14T10:38:17.737Z,99757.37
2023-04-14T10:39:22.602Z,99760.13
2023-04-14T10:40:25.907Z,99758.41
2023-04-14T10:42:56.564Z,99769.33
2023-04-14T10:43:59.527Z,99767.44
2023-04-14T10:45:05.276Z,99771.72
2023-04-14T10:46:09.305Z,99780.66
2023-04-14T10:47:15.600Z,99784.08
2023-04-14T10:48:18.331Z,99780.56
2023-04-14T10:49:33.317Z,99776.19
2023-04-14T10:50:39.173Z,99780.66
2023-04-14T10:51:41.404Z,99793.11
2023-04-14T10:52:52.474Z,99785.13
2023-04-14T10:53:54.678Z,99793.96
2023-04-14T10:55:00.628Z,99787.69
2023-04-14T10:56:03.760Z,99788.45
2023-04-14T10:57:12.136Z,99798.16
2023-04-14T10:58:23.638Z,99790.91
2023-04-14T10:59:28.127Z,99793.56
2023-04-14T11:00:31.171Z,99794.52
2023-04-14T11:01:36.050Z,99791.03
2023-04-14T11:02:41.372Z,99804.34
2023-04-14T11:03:44.464Z,99800.69
2023-04-14T11:05:07.298Z,99802.50
2023-04-14T11:06:11.599Z,99803.48
2023-04-14T11:07:17.454Z,99806.02
2023-04-14T11:08:28.157Z,99806.78
2023-04-14T11:09:35.050Z,99815.63
2023-04-14T11:10:38.109Z,99810.30
2023-04-14T11:11:41.738Z,99804.80
2023-04-14T11:12:46.015Z,99804.88
2023-04-14T11:13:52.338Z,99802.22
2023-04-14T11:15:05.166Z,99811.86
2023-04-14T11:16:08.289Z,99812.78
2023-04-14T11:17:14.116Z,99803.87
2023-04-14T11:18:37.370Z,99803.78
2023-04-14T11:19:39.587Z,99802.93
2023-04-14T11:20:42.817Z,99806.36
2023-04-14T11:21:51.221Z,99803.51
2023-04-14T11:22:56.706Z,99800.84
2023-04-14T11:23:59.248Z,99797.11
2023-04-14T11:25:01.997Z,99803.30
2023-04-14T11:26:05.850Z,99795.30
2023-04-14T11:27:11.786Z,99801.48
2023-04-14T11:28:13.912Z,99799.68
2023-04-14T11:29:16.186Z,99802.44
2023-04-14T11:30:21.137Z,99802.25
2023-04-14T11:31:26.855Z,99794.08
2023-04-14T11:32:29.589Z,99800.25
2023-04-14T11:34:42.853Z,99798.62
2023-04-14T11:35:45.033Z,99800.25
2023-04-14T11:36:48.826Z,99796.64
2023-04-14T11:37:58.365Z,99800.07
2023-04-14T11:39:01.972Z,99798.17
2023-04-14T11:40:05.354Z,99806.16
2023-04-14T11:41:08.893Z,99802.64
2023-04-14T11:42:12.628Z,99807.84
2023-04-14T11:43:14.903Z,99806.89
2023-04-14T11:44:20.214Z,99808.83
2023-04-14T11:45:30.726Z,99809.55
2023-04-14T11:46:33.664Z,99802.52
2023-04-14T11:47:36.465Z,99796.36
2023-04-14T11:48:38.654Z,99800.93
2023-04-14T11:49:40.812Z,99808.06
2023-04-14T11:50:43.743Z,99796.64
2023-04-14T11:51:46.016Z,99806.53
2023-04-14T11:52:48.240Z,99807.48
2023-04-14T11:53:52.264Z,99805.77
2023-04-14T11:54:54.527Z,99813.94
2023-04-14T11:55:56.777Z,99805.31
2023-04-14T11:56:59.047Z,99815.20
2023-04-14T11:58:02.701Z,99811.86
2023-04-14T11:59:05.955Z,99812.97
2023-04-14T12:00:11.412Z,99814.12
2023-04-14T12:01:13.630Z,99823.23
2023-04-14T12:02:18.991Z,99816.30
2023-04-14T12:03:23.358Z,99814.67
2023-04-14T12:04:26.952Z,99809.34
2023-04-14T12:05:31.544Z,99809.44
2023-04-14T12:06:37.280Z,99810.39
2023-04-14T12:07:42.375Z,99811.24
2023-04-14T12:08:53.633Z,99802.49
2023-04-14T12:09:55.974Z,99809.53
2023-04-14T12:11:00.552Z,99806.13
2023-04-14T12:12:07.372Z,99803.56
2023-04-14T12:13:11.647Z,99806.13
2023-04-14T12:14:14.392Z,99800.99
2023-04-14T12:15:17.001Z,99808.89
2023-04-14T12:16:19.774Z,99805.45
2023-04-14T12:17:22.537Z,99811.64
2023-04-14T12:18:24.984Z,99810.78
2023-04-14T12:19:27.192Z,99802.03
2023-04-14T12:20:50.962Z,99809.16
2023-04-14T12:21:53.674Z,99812.86
2023-04-14T12:23:04.121Z,99808.39
2023-04-14T12:24:06.328Z,99810.10
2023-04-14T12:25:12.336Z,99809.25
2023-04-14T12:26:16.295Z,99803.06
2023-04-14T12:27:19.531Z,99808.21
2023-04-14T12:28:29.573Z,99800.23
2023-04-14T12:30:46.079Z,99807.63
2023-04-14T12:31:49.448Z,99798.60
2023-04-14T12:32:51.910Z,99801.35
2023-04-14T12:35:07.162Z,99800.42
2023-04-14T12:37:24.383Z,99804.02
2023-04-14T12:38:30.677Z,99801.17
2023-04-14T12:39:50.366Z,99800.99
2023-04-14T12:40:52.588Z,99812.49
2023-04-14T12:41:57.881Z,99803.56
2023-04-14T12:43:00.146Z,99803.34
2023-04-14T12:44:05.925Z,99800.81
2023-04-14T12:45:09.304Z,99800.81
2023-04-14T12:46:16.199Z,99804.20
2023-04-14T12:47:30.052Z,99802.49
2023-04-14T12:48:47.525Z,99803.26
2023-04-14T12:49:49.650Z,99808.58
2023-04-14T12:50:55.493Z,99804.97
2023-04-14T12:51:57.723Z,99795.27
2023-04-14T12:53:00.744Z,99799.73
2023-04-14T12:54:07.754Z,99794.33
2023-04-14T12:55:21.748Z,99796.04
2023-04-14T12:56:23.867Z,99796.80
2023-04-14T12:57:26.987Z,99805.56
2023-04-14T12:58:29.654Z,99796.63
2023-04-14T12:59:31.607Z,99794.73
2023-04-14T13:00:33.759Z,99798.16
2023-04-14T13:01:36.103Z,99808.59
2023-04-14T13:02:38.984Z,99800.69
2023-04-14T13:03:52.761Z,99803.27
2023-04-14T13:04:56.275Z,99806.88
2023-04-14T13:05:58.793Z,99809.45
2023-04-14T13:07:01.357Z,99813.91